INFORMACIÓN METAR y TAF
METAR FOR SECA
ADDS - METARS form results

(2320 UTC 18 October 2019)
Data provider http://aviationweather.gov/metar/data/
 
METAR text: SECA 182300Z 27010KT 9999 OVC040 22/15 Q1016
Conditions at: SECA (CIUDAD DE CATAMY, EC) observed 2300 UTC 18 October 2019
Temperature: 22.0°C (72°F)
Dewpoint: 15.0°C (59°F) [RH = 65%]
Pressure (altimeter): 30.00 inches Hg (1016.0 mb)
Winds: from the W (270 degrees) at 12 MPH (10 knots; 5.1 m/s)
Visibility: 6 or more miles (10+ km)
Ceiling: 4000 feet AGL
Clouds: overcast cloud deck at 4000 feet AGL
Weather: no significant weather observed at this time

 MAPA DE AEROPUERTO

 INFORMACIÓN DE PISTA
Pista 06 Longitud 6725 ft Ancho 98 ft
Elevación 3923 ft Umbral desplazado 0 ft Rumbo de pista 64
Pista 24 Longitud 6725 ft Ancho 98 ft
Elevación 4056 ft Umbral desplazado 0 ft Rumbo de pista 244

 FRECUANCIAS DEL AEROPUERTO
Tipo ACC Nombre GUAYAQUIL Frecuencia 128.3 MHZ
Tipo RDO Nombre GUAYAQUIL Frecuencia 126.9 MHZ
Tipo TWR Nombre LA TOMA TW Frecuencia 122.2 MHZ

 RADIO AYUDAS DEL AEROPUERTO



Fly Ecuador Virtual 2018 | System by VAM